createdAt,value
2017-11-08T00:00:16.815Z,46.50
2017-11-08T00:02:44.323Z,46.90
2017-11-08T00:05:11.938Z,47.93
2017-11-08T00:07:39.579Z,46.77
2017-11-08T00:10:07.156Z,46.03
2017-11-08T00:12:34.675Z,49.63
2017-11-08T00:15:02.451Z,47.97
2017-11-08T00:17:29.959Z,47.97
2017-11-08T00:19:57.703Z,48.90
2017-11-08T00:22:25.265Z,48.00
2017-11-08T00:24:52.777Z,51.80
2017-11-08T00:27:20.349Z,48.70
2017-11-08T00:29:47.982Z,49.27
2017-11-08T00:32:15.495Z,47.37
2017-11-08T00:34:43.081Z,50.40
2017-11-08T00:37:11.565Z,48.50
2017-11-08T00:39:39.109Z,63.35
2017-11-08T00:42:06.618Z,49.73
2017-11-08T00:44:34.209Z,46.30
2017-11-08T00:47:01.730Z,46.60
2017-11-08T00:49:30.704Z,46.43
2017-11-08T00:51:58.371Z,46.90
2017-11-08T00:54:25.887Z,46.77
2017-11-08T00:56:59.962Z,49.97
2017-11-08T00:59:27.499Z,46.40
2017-11-08T01:01:55.134Z,46.10
2017-11-08T01:04:22.991Z,48.03
2017-11-08T01:06:51.187Z,48.13
2017-11-08T01:09:18.696Z,51.57
2017-11-08T01:11:46.346Z,46.37
2017-11-08T01:14:13.855Z,47.37
2017-11-08T01:16:41.366Z,46.07
2017-11-08T01:19:09.051Z,44.87
2017-11-08T01:21:36.559Z,44.57
2017-11-08T01:24:04.071Z,42.60
2017-11-08T01:26:31.614Z,46.60
2017-11-08T01:28:59.233Z,45.93
2017-11-08T01:31:26.752Z,44.47
2017-11-08T01:33:54.306Z,47.30
2017-11-08T01:36:22.009Z,47.20
2017-11-08T01:38:49.594Z,47.27
2017-11-08T01:41:23.458Z,49.20
2017-11-08T01:43:51.157Z,49.07
2017-11-08T01:46:18.700Z,45.60
2017-11-08T01:48:46.381Z,52.70
2017-11-08T01:51:14.909Z,55.30
2017-11-08T01:53:42.430Z,52.57
2017-11-08T01:56:10.061Z,54.40
2017-11-08T01:58:37.708Z,56.77
2017-11-08T02:01:05.259Z,49.70
2017-11-08T02:06:05.508Z,53.87
2017-11-08T02:08:33.016Z,58.10
2017-11-08T02:11:00.578Z,50.00
2017-11-08T02:13:28.178Z,51.70
2017-11-08T02:15:57.083Z,54.87
2017-11-08T02:18:24.934Z,53.90
2017-11-08T02:20:52.651Z,49.77
2017-11-08T02:23:20.223Z,50.10
2017-11-08T02:25:47.734Z,48.73
2017-11-08T02:28:18.200Z,50.67
2017-11-08T02:30:45.743Z,49.30
2017-11-08T02:33:15.191Z,49.03
2017-11-08T02:35:42.800Z,47.33
2017-11-08T02:38:10.303Z,47.70
2017-11-08T02:40:37.828Z,52.23
2017-11-08T02:43:11.999Z,51.73
2017-11-08T02:45:41.414Z,45.67
2017-11-08T02:48:08.926Z,44.30
2017-11-08T02:50:36.467Z,46.30
2017-11-08T02:53:04.051Z,50.87
2017-11-08T02:55:31.736Z,45.13
2017-11-08T02:57:59.314Z,46.93
2017-11-08T03:00:26.840Z,43.63
2017-11-08T03:02:56.171Z,43.67
2017-11-08T03:05:23.723Z,46.30
2017-11-08T03:07:53.371Z,44.07
2017-11-08T03:10:20.996Z,48.40
2017-11-08T03:12:48.542Z,44.83
2017-11-08T03:15:16.637Z,48.17
2017-11-08T03:17:44.438Z,43.73
2017-11-08T03:20:12.255Z,43.37
2017-11-08T03:22:39.792Z,42.13
2017-11-08T03:25:07.506Z,45.50
2017-11-08T03:27:35.848Z,42.93
2017-11-08T03:30:03.429Z,40.20
2017-11-08T03:32:31.012Z,39.80
2017-11-08T03:34:58.595Z,40.93
2017-11-08T03:37:26.111Z,38.90
2017-11-08T03:39:53.925Z,37.03
2017-11-08T03:42:21.594Z,37.03
2017-11-08T03:44:49.114Z,38.90
2017-11-08T03:47:16.624Z,40.60
2017-11-08T03:49:44.459Z,38.90
2017-11-08T03:52:12.024Z,41.57
2017-11-08T03:54:39.748Z,43.27
2017-11-08T03:57:07.435Z,43.57
2017-11-08T03:59:35.016Z,39.47
2017-11-08T04:02:05.038Z,40.07
2017-11-08T04:04:32.980Z,43.13
2017-11-08T04:07:00.499Z,41.50
2017-11-08T04:09:28.024Z,41.70
2017-11-08T04:11:55.587Z,35.60
2017-11-08T04:14:23.099Z,37.97
2017-11-08T04:16:50.635Z,38.57
2017-11-08T04:19:18.203Z,34.80
2017-11-08T04:21:45.760Z,34.10
2017-11-08T04:24:13.340Z,36.87
2017-11-08T04:26:40.900Z,34.87
2017-11-08T04:29:08.436Z,39.93
2017-11-08T04:31:35.949Z,37.60
2017-11-08T04:34:03.543Z,36.67
2017-11-08T04:36:31.060Z,37.53
2017-11-08T04:38:59.363Z,40.57
2017-11-08T04:41:27.053Z,36.27
2017-11-08T04:43:54.572Z,34.73
2017-11-08T04:46:22.103Z,36.87
2017-11-08T04:48:49.681Z,39.17
2017-11-08T04:51:17.193Z,41.70
2017-11-08T04:53:44.691Z,40.67
2017-11-08T04:56:12.296Z,42.50
2017-11-08T04:58:39.848Z,42.13
2017-11-08T05:01:07.398Z,40.17
2017-11-08T05:03:34.997Z,40.30
2017-11-08T05:06:02.540Z,39.77
2017-11-08T05:08:30.065Z,44.80
2017-11-08T05:10:57.862Z,42.00
2017-11-08T05:13:25.384Z,45.30
2017-11-08T05:15:52.904Z,44.27
2017-11-08T05:18:20.492Z,44.90
2017-11-08T05:20:48.030Z,43.30
2017-11-08T05:23:15.579Z,43.20
2017-11-08T05:25:43.508Z,44.17
2017-11-08T05:28:11.080Z,40.20
2017-11-08T05:30:38.826Z,41.60
2017-11-08T05:33:06.591Z,38.47
2017-11-08T05:35:34.914Z,40.40
2017-11-08T05:38:02.423Z,40.43
2017-11-08T05:40:30.031Z,38.33
2017-11-08T05:42:57.584Z,41.20
2017-11-08T05:45:25.106Z,41.07
2017-11-08T05:47:52.702Z,41.77
2017-11-08T05:50:20.211Z,42.43
2017-11-08T05:52:48.078Z,40.47
2017-11-08T05:55:16.039Z,41.57
2017-11-08T05:57:43.568Z,41.27
2017-11-08T06:00:11.149Z,39.10
2017-11-08T06:02:38.712Z,36.03
2017-11-08T06:05:07.003Z,36.30
2017-11-08T06:07:35.308Z,35.70
2017-11-08T06:10:02.988Z,39.97
2017-11-08T06:12:30.510Z,40.27
2017-11-08T06:14:58.025Z,34.70
2017-11-08T06:17:25.597Z,39.17
2017-11-08T06:19:53.155Z,36.37
2017-11-08T06:22:20.675Z,37.00
2017-11-08T06:24:49.285Z,34.50
2017-11-08T06:27:16.988Z,32.03
2017-11-08T06:29:44.527Z,34.10
2017-11-08T06:32:12.152Z,34.90
2017-11-08T06:34:41.159Z,30.80
2017-11-08T06:37:08.767Z,32.43
2017-11-08T06:39:36.480Z,30.73
2017-11-08T06:42:04.043Z,27.40
2017-11-08T06:44:31.903Z,28.87
2017-11-08T06:47:00.262Z,31.50
2017-11-08T06:49:27.833Z,28.07
2017-11-08T06:51:55.385Z,27.03
2017-11-08T06:54:23.004Z,30.07
2017-11-08T06:56:50.597Z,26.23
2017-11-08T06:59:18.115Z,24.67
2017-11-08T07:01:45.711Z,24.00
2017-11-08T07:04:14.127Z,20.20
2017-11-08T07:06:42.135Z,17.37
2017-11-08T07:09:09.794Z,15.33
2017-11-08T07:11:37.303Z,14.83
2017-11-08T07:14:04.836Z,13.37
2017-11-08T07:16:32.470Z,12.80
2017-11-08T07:18:59.992Z,10.30
2017-11-08T07:21:27.539Z,9.03
2017-11-08T07:23:55.105Z,10.00
2017-11-08T07:26:22.716Z,9.83
2017-11-08T07:28:51.016Z,11.00
2017-11-08T07:31:18.596Z,10.00
2017-11-08T07:33:46.103Z,9.03
2017-11-08T07:36:13.612Z,9.10
2017-11-08T07:38:41.195Z,8.40
2017-11-08T07:41:08.723Z,8.03
2017-11-08T07:43:36.331Z,8.37
2017-11-08T07:46:03.887Z,7.53
2017-11-08T07:48:31.401Z,7.87
2017-11-08T07:50:58.981Z,7.00
2017-11-08T07:53:26.550Z,7.03
2017-11-08T07:55:59.606Z,8.53
2017-11-08T07:58:27.177Z,7.33
2017-11-08T08:00:54.739Z,6.10
2017-11-08T08:03:22.416Z,5.70
2017-11-08T08:05:50.143Z,6.73
2017-11-08T08:08:17.667Z,5.27
2017-11-08T08:10:45.191Z,6.67
2017-11-08T08:13:12.859Z,7.70
2017-11-08T08:15:40.504Z,5.70
2017-11-08T08:18:08.085Z,6.23
2017-11-08T08:20:36.530Z,5.77
2017-11-08T08:23:04.060Z,6.77
2017-11-08T08:25:32.482Z,6.63
2017-11-08T08:28:00.039Z,5.87
2017-11-08T08:30:28.344Z,6.20
2017-11-08T08:32:55.994Z,7.30
2017-11-08T08:35:24.173Z,7.20
2017-11-08T08:37:51.710Z,4.63
2017-11-08T08:40:19.212Z,4.23
2017-11-08T08:42:46.783Z,5.27
2017-11-08T08:45:14.292Z,4.10
2017-11-08T08:47:41.795Z,3.80
2017-11-08T08:50:09.535Z,4.10
2017-11-08T08:52:37.043Z,3.60
2017-11-08T08:55:04.793Z,5.40
2017-11-08T08:57:32.383Z,4.00
2017-11-08T08:59:59.879Z,3.40
2017-11-08T09:02:32.441Z,4.00
2017-11-08T09:05:00.016Z,3.47
2017-11-08T09:07:27.536Z,3.80
2017-11-08T09:09:55.183Z,3.93
2017-11-08T09:12:22.723Z,3.93
2017-11-08T09:14:50.384Z,5.17
2017-11-08T09:17:17.949Z,4.40
2017-11-08T09:19:46.401Z,3.27
2017-11-08T09:22:14.143Z,3.97
2017-11-08T09:24:49.307Z,4.50
2017-11-08T09:27:16.932Z,5.70
2017-11-08T09:43:13.121Z,4.37
2017-11-08T09:45:40.634Z,3.83
2017-11-08T09:48:08.173Z,4.07
2017-11-08T09:50:35.759Z,3.50
2017-11-08T09:53:03.275Z,4.47
2017-11-08T09:55:30.795Z,4.17
2017-11-08T09:57:59.344Z,5.30
2017-11-08T10:00:26.852Z,9.20
2017-11-08T10:02:55.152Z,5.10
2017-11-08T10:05:22.830Z,6.53
2017-11-08T10:07:50.373Z,6.23
2017-11-08T10:10:17.914Z,5.03
2017-11-08T10:12:47.408Z,5.10
2017-11-08T10:15:14.988Z,10.40
2017-11-08T10:17:42.538Z,7.27
2017-11-08T10:20:10.273Z,5.30
2017-11-08T10:22:37.944Z,5.50
2017-11-08T10:25:06.251Z,4.70
2017-11-08T10:27:33.823Z,8.10
2017-11-08T10:30:01.749Z,6.97
2017-11-08T10:32:29.355Z,7.07
2017-11-08T10:34:57.762Z,5.80
2017-11-08T10:37:25.337Z,5.40
2017-11-08T10:39:53.025Z,6.57
2017-11-08T10:42:20.600Z,5.97
2017-11-08T10:44:48.149Z,5.10
2017-11-08T10:47:15.788Z,4.97
2017-11-08T10:49:49.021Z,3.40
2017-11-08T10:52:16.588Z,2.70
2017-11-08T10:54:44.156Z,3.83
2017-11-08T10:57:11.752Z,3.10
2017-11-08T10:59:45.136Z,3.40
2017-11-08T11:02:12.713Z,5.13
2017-11-08T11:04:41.013Z,3.60
2017-11-08T11:07:08.534Z,3.73
2017-11-08T11:09:36.162Z,4.27
2017-11-08T11:12:03.906Z,3.63
2017-11-08T11:14:31.456Z,3.60
2017-11-08T11:16:59.084Z,4.43
2017-11-08T11:19:26.624Z,4.30
2017-11-08T11:21:59.783Z,3.93
2017-11-08T11:24:32.840Z,3.80
2017-11-08T11:27:06.282Z,3.70
2017-11-08T11:29:34.564Z,3.03
2017-11-08T11:32:02.085Z,3.50
2017-11-08T11:34:29.809Z,3.40
2017-11-08T11:36:57.399Z,3.67
2017-11-08T11:39:25.732Z,3.80
2017-11-08T11:41:53.317Z,3.90
2017-11-08T11:44:20.948Z,3.97
2017-11-08T11:46:48.459Z,3.63
2017-11-08T11:49:17.364Z,3.40
2017-11-08T11:51:44.879Z,3.77
2017-11-08T11:54:12.388Z,3.13
2017-11-08T11:56:40.209Z,2.90
2017-11-08T11:59:07.756Z,4.37
2017-11-08T12:01:35.265Z,4.47
2017-11-08T12:04:02.813Z,3.17
2017-11-08T12:06:30.431Z,3.70
2017-11-08T12:08:58.791Z,4.20
2017-11-08T12:11:26.535Z,4.73
2017-11-08T12:13:54.045Z,4.67
2017-11-08T12:16:21.632Z,5.57
2017-11-08T12:18:49.977Z,6.10
2017-11-08T12:21:17.493Z,5.70
2017-11-08T12:23:45.036Z,4.00
2017-11-08T12:26:13.369Z,5.50
2017-11-08T12:28:44.738Z,5.90
2017-11-08T12:31:12.249Z,6.10
2017-11-08T12:33:39.814Z,6.30
2017-11-08T12:36:07.350Z,7.17
2017-11-08T12:38:37.653Z,7.40
2017-11-08T12:41:05.240Z,9.37
2017-11-08T12:43:32.744Z,8.90
2017-11-08T12:46:01.136Z,9.60
2017-11-08T12:48:28.834Z,9.90
2017-11-08T12:50:56.391Z,10.73
2017-11-08T12:53:24.131Z,12.07
2017-11-08T12:55:51.912Z,10.23
2017-11-08T12:58:19.428Z,10.80
2017-11-08T13:00:46.941Z,11.30
2017-11-08T13:03:15.260Z,9.60
2017-11-08T13:05:42.841Z,10.40
2017-11-08T13:08:10.414Z,10.07
2017-11-08T13:10:43.508Z,10.73
2017-11-08T13:13:11.104Z,11.93
2017-11-08T13:15:38.616Z,12.00
2017-11-08T13:18:06.209Z,11.10
2017-11-08T13:20:33.828Z,8.17
2017-11-08T13:23:01.336Z,7.83
2017-11-08T13:25:29.728Z,9.50
2017-11-08T13:27:57.443Z,8.70
2017-11-08T13:30:24.980Z,10.30
2017-11-08T13:32:52.800Z,10.43
2017-11-08T13:35:20.389Z,11.70
2017-11-08T13:37:48.077Z,9.13
2017-11-08T13:40:15.656Z,9.87
2017-11-08T13:42:43.171Z,10.53
2017-11-08T13:45:10.713Z,10.30
2017-11-08T13:47:38.303Z,9.53
2017-11-08T13:50:06.165Z,10.27
2017-11-08T13:52:33.700Z,9.30
2017-11-08T13:55:01.320Z,8.40
2017-11-08T13:57:29.011Z,9.77
2017-11-08T13:59:56.537Z,10.60
2017-11-08T14:02:24.405Z,11.13
2017-11-08T14:04:51.921Z,11.23
2017-11-08T14:07:19.443Z,11.50
2017-11-08T14:09:47.016Z,11.30
2017-11-08T14:12:15.488Z,11.10
2017-11-08T14:14:44.084Z,10.93
2017-11-08T14:17:12.057Z,10.80
2017-11-08T14:19:40.340Z,12.00
2017-11-08T14:22:07.911Z,10.23
2017-11-08T14:24:35.506Z,12.23
2017-11-08T14:27:03.020Z,11.60
2017-11-08T14:29:33.103Z,11.87
2017-11-08T14:32:00.685Z,14.77
2017-11-08T14:34:29.123Z,12.63
2017-11-08T14:36:57.170Z,15.20
2017-11-08T14:39:24.784Z,13.00
2017-11-08T14:41:52.424Z,12.13
2017-11-08T14:44:20.246Z,15.30
2017-11-08T14:46:47.792Z,13.93
2017-11-08T14:49:15.445Z,15.30
2017-11-08T14:51:42.749Z,17.50
2017-11-08T14:54:13.241Z,13.80
2017-11-08T14:56:40.822Z,11.87
2017-11-08T14:59:08.384Z,12.70
2017-11-08T15:01:35.984Z,11.90
2017-11-08T15:04:05.111Z,13.03
2017-11-08T15:06:33.399Z,12.93
2017-11-08T15:09:01.734Z,13.43
2017-11-08T15:11:36.272Z,12.43
2017-11-08T15:14:04.997Z,12.73
2017-11-08T15:16:32.819Z,14.40
2017-11-08T15:19:00.448Z,14.70
2017-11-08T15:21:28.060Z,14.53
2017-11-08T15:23:56.463Z,15.03
2017-11-08T15:26:24.277Z,12.00
2017-11-08T15:28:52.276Z,11.60
2017-11-08T15:31:20.570Z,12.00
2017-11-08T15:33:48.109Z,10.63
2017-11-08T15:36:15.832Z,10.63
2017-11-08T15:38:43.396Z,10.13
2017-11-08T15:41:10.906Z,9.77
2017-11-08T15:43:38.368Z,11.83
2017-11-08T15:46:06.056Z,9.73
2017-11-08T15:48:33.842Z,9.43
2017-11-08T15:51:01.424Z,11.93
2017-11-08T15:53:29.390Z,12.90
2017-11-08T15:55:57.855Z,12.60
2017-11-08T15:58:25.524Z,10.33
2017-11-08T16:00:53.277Z,10.93
2017-11-08T16:03:21.092Z,10.23
2017-11-08T16:05:48.612Z,10.37
2017-11-08T16:08:18.034Z,11.27
2017-11-08T16:10:46.338Z,10.10
2017-11-08T16:13:14.230Z,12.23
2017-11-08T16:15:41.784Z,11.87
2017-11-08T16:18:09.320Z,10.90
2017-11-08T16:20:36.980Z,12.27
2017-11-08T16:23:04.842Z,14.77
2017-11-08T16:25:32.368Z,12.57
2017-11-08T16:27:59.886Z,13.63
2017-11-08T16:30:27.613Z,12.07
2017-11-08T16:32:55.124Z,9.73
2017-11-08T16:35:22.694Z,11.07
2017-11-08T16:37:50.216Z,10.90
2017-11-08T16:40:17.813Z,12.40
2017-11-08T16:42:45.341Z,13.00
2017-11-08T16:45:12.906Z,11.67
2017-11-08T16:47:40.490Z,13.20
2017-11-08T16:50:08.103Z,12.87
2017-11-08T16:52:35.624Z,9.93
2017-11-08T16:55:04.052Z,11.93
2017-11-08T16:57:31.781Z,10.90
2017-11-08T16:59:59.356Z,11.97
2017-11-08T17:02:26.878Z,11.77
2017-11-08T17:04:54.443Z,12.37
2017-11-08T17:07:21.985Z,10.83
2017-11-08T17:09:49.493Z,12.73
2017-11-08T17:12:17.823Z,12.40
2017-11-08T17:14:45.415Z,10.10
2017-11-08T17:17:12.926Z,12.10
2017-11-08T17:19:40.496Z,12.67
2017-11-08T17:22:08.036Z,11.90
2017-11-08T17:24:35.621Z,10.40
2017-11-08T17:27:03.924Z,11.40
2017-11-08T17:29:31.438Z,13.93
2017-11-08T17:31:58.951Z,11.67
2017-11-08T17:34:26.545Z,12.50
2017-11-08T17:36:54.053Z,12.67
2017-11-08T17:39:21.610Z,11.47
2017-11-08T17:41:49.298Z,13.53
2017-11-08T17:44:17.587Z,12.07
2017-11-08T17:46:45.111Z,12.13
2017-11-08T17:49:12.704Z,12.60
2017-11-08T17:51:41.028Z,13.97
2017-11-08T17:54:08.559Z,12.37
2017-11-08T17:56:36.213Z,11.97
2017-11-08T17:59:03.745Z,12.33
2017-11-08T18:01:32.020Z,14.07
2017-11-08T18:03:59.884Z,13.07
2017-11-08T18:06:27.424Z,11.63
2017-11-08T18:08:54.972Z,10.87
2017-11-08T18:11:23.169Z,13.00
2017-11-08T18:13:50.722Z,13.13
2017-11-08T18:16:18.241Z,13.90
2017-11-08T18:18:45.908Z,15.70
2017-11-08T18:21:13.535Z,13.03
2017-11-08T18:23:41.116Z,11.97
2017-11-08T18:26:08.643Z,13.27
2017-11-08T18:28:36.214Z,13.17
2017-11-08T18:31:03.731Z,11.40
2017-11-08T18:33:31.293Z,12.60
2017-11-08T18:35:58.919Z,12.97
2017-11-08T18:38:26.473Z,12.60
2017-11-08T18:40:54.013Z,12.30
2017-11-08T18:43:22.325Z,14.00
2017-11-08T18:45:49.827Z,14.70
2017-11-08T18:48:17.397Z,14.10
2017-11-08T18:50:44.963Z,13.20
2017-11-08T18:53:13.139Z,13.80
2017-11-08T18:55:41.436Z,13.57
2017-11-08T18:58:08.989Z,14.43
2017-11-08T19:00:36.509Z,12.87
2017-11-08T19:03:04.029Z,13.50
2017-11-08T19:05:31.673Z,13.53
2017-11-08T19:07:59.195Z,15.23
2017-11-08T19:10:26.740Z,13.73
2017-11-08T19:12:54.308Z,14.80
2017-11-08T19:15:21.817Z,14.43
2017-11-08T19:17:49.381Z,15.10
2017-11-08T19:20:17.078Z,16.98
2017-11-08T19:22:44.385Z,16.07
2017-11-08T19:25:11.986Z,13.10
2017-11-08T19:27:39.610Z,15.03
2017-11-08T19:30:07.136Z,13.70
2017-11-08T19:32:35.056Z,13.87
2017-11-08T19:35:02.577Z,14.77
2017-11-08T19:37:31.026Z,14.90
2017-11-08T19:39:58.861Z,13.17
2017-11-08T19:42:26.432Z,14.37
2017-11-08T19:44:54.049Z,13.90
2017-11-08T19:47:22.345Z,16.80
2017-11-08T19:49:50.299Z,15.10
2017-11-08T19:52:17.915Z,13.10
2017-11-08T19:54:45.607Z,15.50
2017-11-08T19:57:13.175Z,15.10
2017-11-08T19:59:41.519Z,14.67
2017-11-08T20:02:09.849Z,14.30
2017-11-08T20:04:37.368Z,15.03
2017-11-08T20:07:04.883Z,16.20
2017-11-08T20:09:32.588Z,12.97
2017-11-08T20:12:00.101Z,14.17
2017-11-08T20:14:27.636Z,14.63
2017-11-08T20:16:55.953Z,14.93
2017-11-08T20:19:23.507Z,14.40
2017-11-08T20:21:51.069Z,13.13
2017-11-08T20:24:18.660Z,14.10
2017-11-08T20:26:46.216Z,11.90
2017-11-08T20:29:13.775Z,13.43
2017-11-08T20:31:41.373Z,13.70
2017-11-08T20:34:08.937Z,12.87
2017-11-08T20:36:37.217Z,14.50
2017-11-08T20:39:05.616Z,15.20
2017-11-08T20:41:33.173Z,14.80
2017-11-08T20:44:00.734Z,15.73
2017-11-08T20:46:28.318Z,15.07
2017-11-08T20:48:55.841Z,14.20
2017-11-08T20:51:23.356Z,16.40
2017-11-08T20:53:50.920Z,15.37
2017-11-08T20:56:18.863Z,14.00
2017-11-08T20:58:46.382Z,15.27
2017-11-08T21:01:14.853Z,15.50
2017-11-08T21:03:43.160Z,13.80
2017-11-08T21:06:10.709Z,15.23
2017-11-08T21:08:38.947Z,15.60
2017-11-08T21:11:06.622Z,13.47
2017-11-08T21:13:34.742Z,15.23
2017-11-08T21:16:02.309Z,14.90
2017-11-08T21:18:29.896Z,18.23
2017-11-08T21:20:57.409Z,18.67
2017-11-08T21:23:25.060Z,15.23
2017-11-08T21:25:52.583Z,16.50
2017-11-08T21:28:21.065Z,16.10
2017-11-08T21:30:48.592Z,15.10
2017-11-08T21:33:16.109Z,13.90
2017-11-08T21:35:44.426Z,15.30
2017-11-08T21:38:12.513Z,15.60
2017-11-08T21:40:40.036Z,14.80
2017-11-08T21:43:07.750Z,15.00
2017-11-08T21:45:35.277Z,14.63
2017-11-08T21:48:02.796Z,15.80
2017-11-08T21:50:30.532Z,17.17
2017-11-08T21:52:58.181Z,15.40
2017-11-08T21:55:25.702Z,14.90
2017-11-08T21:57:53.760Z,15.03
2017-11-08T22:00:21.753Z,13.17
2017-11-08T22:02:49.264Z,14.40
2017-11-08T22:05:17.828Z,14.80
2017-11-08T22:07:46.219Z,14.67
2017-11-08T22:10:13.756Z,14.40
2017-11-08T22:12:41.140Z,14.43
2017-11-08T22:15:08.644Z,15.40
2017-11-08T22:17:36.588Z,16.73
2017-11-08T22:20:04.270Z,16.23
2017-11-08T22:22:31.792Z,16.20
2017-11-08T22:24:59.563Z,14.20
2017-11-08T22:27:27.188Z,15.17
2017-11-08T22:29:56.054Z,14.40
2017-11-08T22:32:23.606Z,15.30
2017-11-08T22:34:51.189Z,14.43
2017-11-08T22:37:18.864Z,15.87
2017-11-08T22:39:46.416Z,15.97
2017-11-08T22:42:14.448Z,14.47
2017-11-08T22:44:42.014Z,13.63
2017-11-08T22:47:10.759Z,14.87
2017-11-08T22:49:39.038Z,13.60
2017-11-08T22:52:06.621Z,15.03
2017-11-08T22:54:34.985Z,15.30
2017-11-08T22:57:02.542Z,15.27
2017-11-08T22:59:30.089Z,14.27
2017-11-08T23:01:57.629Z,14.60
2017-11-08T23:04:25.427Z,14.40
2017-11-08T23:06:53.181Z,14.03
2017-11-08T23:09:21.660Z,15.20
2017-11-08T23:11:49.178Z,14.40
2017-11-08T23:14:16.775Z,15.27
2017-11-08T23:16:44.295Z,15.23
2017-11-08T23:19:11.884Z,17.20
2017-11-08T23:21:39.444Z,16.47
2017-11-08T23:24:06.971Z,13.47
2017-11-08T23:26:34.653Z,13.73
2017-11-08T23:29:02.481Z,17.07
2017-11-08T23:31:29.988Z,22.63
2017-11-08T23:33:57.497Z,24.77
2017-11-08T23:36:25.048Z,15.00
2017-11-08T23:38:52.777Z,14.23
2017-11-08T23:41:20.548Z,14.60
2017-11-08T23:43:48.173Z,14.70
2017-11-08T23:46:15.710Z,13.93
2017-11-08T23:48:43.389Z,14.07
2017-11-08T23:51:11.334Z,14.43
2017-11-08T23:53:39.613Z,14.53
2017-11-08T23:56:10.092Z,13.60
2017-11-08T23:58:37.664Z,11.77
